Time;durP1;ratioP1;P1;durP2;ratioP2;P2;SDS_P1;SDS_P2;PMS_P1;PMS_P2;Temp;Humidity;BMP_temperature;BMP_pressure;BME280_temperature;BME280_humidity;BME280_pressure;Samples;Min_cycle;Max_cycle;Signal;HPM_P1;HPM_P2
2024/04/24 00:01:09;;;;;;;12.43;4.70;;;7.70;99.90;;;;;;6529864;22;20954;-70
2024/04/24 00:03:37;;;;;;;5.87;4.50;;;7.60;99.90;;;;;;6530356;21;20930;-70
2024/04/24 00:06:06;;;;;;;10.40;5.07;;;7.60;99.90;;;;;;6529767;22;20452;-69
2024/04/24 00:08:35;;;;;;;6.00;4.60;;;7.60;99.90;;;;;;6529984;22;20461;-70
2024/04/24 00:11:03;;;;;;;4.60;4.20;;;7.60;99.90;;;;;;6529821;22;20494;-70
2024/04/24 00:13:32;;;;;;;10.53;4.77;;;7.60;99.90;;;;;;6530229;21;20448;-70
2024/04/24 00:16:00;;;;;;;6.37;4.90;;;7.60;99.90;;;;;;6526919;22;20501;-69
2024/04/24 00:18:31;;;;;;;4.97;3.90;;;7.60;99.90;;;;;;6527323;22;20491;-70
2024/04/24 00:21:00;;;;;;;6.40;4.03;;;7.70;99.90;;;;;;6528870;22;20453;-69
2024/04/24 00:23:28;;;;;;;6.03;4.73;;;7.70;99.90;;;;;;6529618;21;20460;-70
2024/04/24 00:25:58;;;;;;;5.37;4.43;;;7.70;99.90;;;;;;6528340;22;20444;-70
2024/04/24 00:28:26;;;;;;;5.90;3.70;;;7.70;99.90;;;;;;6526232;22;20455;-70
2024/04/24 00:30:59;;;;;;;5.50;4.07;;;7.70;99.90;;;;;;6526447;22;20457;-69
2024/04/24 00:33:30;;;;;;;4.70;3.70;;;7.70;99.90;;;;;;6526210;21;20505;-70
2024/04/24 00:35:59;;;;;;;4.33;3.80;;;7.70;99.90;;;;;;6525362;22;20513;-69
2024/04/24 00:38:27;;;;;;;5.33;4.00;;;7.80;99.90;;;;;;6526322;22;20950;-68
2024/04/24 00:40:56;;;;;;;4.20;3.57;;;7.80;99.90;;;;;;6526074;22;21045;-69
2024/04/24 00:43:24;;;;;;;4.77;3.80;;;7.80;99.90;;;;;;6526516;21;20533;-69
2024/04/24 00:45:55;;;;;;;9.43;3.60;;;7.80;99.90;;;;;;6525112;22;20460;-68
2024/04/24 00:48:24;;;;;;;4.63;3.40;;;7.70;99.90;;;;;;6526024;22;20480;-69
2024/04/24 00:50:56;;;;;;;6.03;3.90;;;7.70;99.90;;;;;;6526220;22;20863;-70
2024/04/24 00:53:25;;;;;;;5.20;3.80;;;7.70;99.90;;;;;;6525689;21;20457;-69
2024/04/24 00:55:53;;;;;;;8.20;4.70;;;7.70;99.90;;;;;;6524586;22;20941;-69
2024/04/24 00:58:22;;;;;;;7.33;3.93;;;7.70;99.90;;;;;;6525753;22;20501;-69
2024/04/24 01:00:51;;;;;;;6.33;4.13;;;7.70;99.90;;;;;;6525984;22;20487;-69
2024/04/24 01:03:23;;;;;;;7.20;3.33;;;7.70;99.90;;;;;;6525741;22;20491;-69
2024/04/24 01:05:55;;;;;;;6.90;3.50;;;7.60;99.90;;;;;;6524751;22;20464;-70
2024/04/24 01:08:23;;;;;;;4.47;3.27;;;7.60;99.90;;;;;;6525853;22;20460;-70
2024/04/24 01:10:57;;;;;;;4.50;3.30;;;7.60;99.90;;;;;;6525869;22;20502;-69
2024/04/24 01:13:26;;;;;;;4.90;3.30;;;7.60;99.90;;;;;;6525840;21;20472;-70
2024/04/24 01:15:58;;;;;;;10.43;4.00;;;7.60;99.90;;;;;;6525122;22;20456;-69
2024/04/24 01:18:28;;;;;;;4.50;3.00;;;7.60;99.90;;;;;;6525722;22;20445;-70
2024/04/24 01:21:02;;;;;;;4.60;2.80;;;7.60;99.90;;;;;;6525983;22;20957;-69
2024/04/24 01:23:38;;;;;;;5.30;3.00;;;7.60;99.90;;;;;;6525790;21;20444;-68
2024/04/24 01:26:14;;;;;;;7.43;3.30;;;7.60;99.90;;;;;;6524823;22;20464;-69
2024/04/24 01:28:46;;;;;;;3.93;2.90;;;7.60;99.90;;;;;;6525745;22;20443;-70
2024/04/24 01:31:14;;;;;;;4.10;3.03;;;7.50;99.90;;;;;;6526066;22;20464;-70
2024/04/24 01:33:43;;;;;;;4.87;2.77;;;7.50;99.90;;;;;;6525675;21;20457;-69
2024/04/24 01:36:11;;;;;;;3.20;2.67;;;7.50;99.90;;;;;;6524848;22;20505;-69
2024/04/24 01:38:39;;;;;;;4.43;2.77;;;7.50;99.90;;;;;;6525626;22;20464;-69
2024/04/24 01:41:08;;;;;;;4.17;2.50;;;7.50;99.90;;;;;;6525501;22;20993;-69
2024/04/24 01:43:38;;;;;;;3.80;2.80;;;7.50;99.90;;;;;;6525690;21;20444;-68
2024/04/24 01:46:09;;;;;;;4.07;2.67;;;7.50;99.90;;;;;;6524428;22;20456;-69
2024/04/24 01:48:38;;;;;;;6.83;3.20;;;7.50;99.90;;;;;;6525819;22;20499;-70
2024/04/24 01:51:07;;;;;;;3.27;2.90;;;7.50;99.90;;;;;;6525623;22;20505;-68
2024/04/24 01:53:35;;;;;;;3.40;2.97;;;7.50;99.90;;;;;;6525356;21;20456;-69
2024/04/24 01:56:04;;;;;;;3.73;2.97;;;7.60;99.90;;;;;;6524581;22;20456;-70
2024/04/24 01:58:32;;;;;;;3.80;2.70;;;7.50;99.90;;;;;;6525106;22;20509;-69
2024/04/24 02:01:01;;;;;;;4.93;3.37;;;7.50;99.90;;;;;;6525635;22;20452;-69
2024/04/24 02:03:32;;;;;;;5.37;3.10;;;7.50;99.90;;;;;;6525385;21;20501;-69
2024/04/24 02:06:01;;;;;;;4.20;3.10;;;7.60;99.90;;;;;;6524875;22;20499;-70
2024/04/24 02:08:30;;;;;;;4.60;3.00;;;7.50;99.90;;;;;;6527066;22;20460;-68
2024/04/24 02:10:58;;;;;;;3.10;2.70;;;7.60;99.90;;;;;;6527667;22;20560;-69
2024/04/24 02:13:27;;;;;;;4.07;3.10;;;7.50;99.90;;;;;;6527873;21;20762;-68
2024/04/24 02:15:55;;;;;;;4.90;3.00;;;7.60;99.90;;;;;;6526184;22;20969;-69
2024/04/24 02:18:24;;;;;;;6.30;3.40;;;7.50;99.90;;;;;;6527093;22;20464;-69
2024/04/24 02:20:55;;;;;;;3.37;2.77;;;7.50;99.90;;;;;;6527724;22;20504;-69
2024/04/24 02:23:31;;;;;;;3.60;2.60;;;7.50;99.90;;;;;;6527391;21;20537;-69
2024/04/24 02:25:57;;;;;;;4.53;2.67;;;7.50;99.90;;;;;;6527106;22;20471;-69
2024/04/24 02:28:26;;;;;;;4.33;3.27;;;7.50;99.90;;;;;;6527515;22;20576;-69
2024/04/24 02:30:55;;;;;;;7.10;3.60;;;7.50;99.90;;;;;;6527141;22;20813;-70
2024/04/24 02:33:23;;;;;;;2.97;2.67;;;7.50;99.90;;;;;;6527574;21;20453;-69
2024/04/24 02:35:54;;;;;;;5.73;3.00;;;7.50;99.90;;;;;;6526215;22;20456;-70
2024/04/24 02:38:23;;;;;;;2.83;2.60;;;7.50;99.90;;;;;;6527400;22;20512;-69
2024/04/24 02:40:51;;;;;;;5.50;3.20;;;7.50;99.90;;;;;;6527402;22;20445;-69
2024/04/24 02:43:20;;;;;;;4.87;3.23;;;7.50;99.90;;;;;;6527048;22;20457;-69
2024/04/24 02:45:49;;;;;;;3.10;2.50;;;7.40;99.90;;;;;;6526689;22;20452;-69
2024/04/24 02:48:17;;;;;;;4.50;3.13;;;7.40;99.90;;;;;;6526971;22;20569;-70
2024/04/24 02:50:46;;;;;;;2.97;2.63;;;7.40;99.90;;;;;;6527515;22;20453;-71
2024/04/24 02:53:17;;;;;;;3.93;2.87;;;7.40;99.90;;;;;;6527247;22;20525;-69
2024/04/24 02:55:43;;;;;;;3.10;2.43;;;7.30;99.90;;;;;;6526140;21;20500;-69
2024/04/24 02:58:12;;;;;;;4.97;2.90;;;7.40;99.90;;;;;;6527281;22;20468;-69
2024/04/24 03:00:40;;;;;;;3.30;2.13;;;7.40;99.90;;;;;;6526995;22;20632;-69
2024/04/24 03:03:09;;;;;;;3.47;2.40;;;7.40;99.90;;;;;;6527213;22;20819;-68
2024/04/24 03:05:37;;;;;;;4.57;3.10;;;7.40;99.90;;;;;;6526712;21;20517;-68
2024/04/24 03:08:06;;;;;;;7.67;3.20;;;7.40;99.90;;;;;;6527298;22;20766;-69
2024/04/24 03:10:37;;;;;;;3.83;2.53;;;7.40;99.90;;;;;;6527430;22;20547;-69
2024/04/24 03:13:06;;;;;;;3.33;2.70;;;7.40;99.90;;;;;;6527237;22;20508;-69
2024/04/24 03:15:34;;;;;;;4.83;3.13;;;7.40;99.90;;;;;;6526327;21;20509;-69
2024/04/24 03:18:03;;;;;;;6.60;2.70;;;7.40;99.90;;;;;;6527630;22;20457;-69
2024/04/24 03:20:31;;;;;;;4.00;2.47;;;7.30;99.90;;;;;;6526572;22;20497;-69
2024/04/24 03:23:00;;;;;;;6.23;2.67;;;7.30;99.90;;;;;;6526967;22;20452;-68
2024/04/24 03:25:28;;;;;;;4.93;3.63;;;7.20;99.90;;;;;;6526130;21;20461;-68
2024/04/24 03:28:00;;;;;;;2.93;2.60;;;7.20;99.90;;;;;;6527262;22;20814;-69
2024/04/24 03:30:28;;;;;;;2.77;2.10;;;7.20;99.90;;;;;;6527433;22;20501;-69
2024/04/24 03:32:54;;;;;;;3.90;2.70;;;7.20;99.90;;;;;;6526926;22;20460;-69
2024/04/24 03:35:22;;;;;;;5.30;2.70;;;7.20;99.90;;;;;;6525825;21;20516;-67
2024/04/24 03:37:51;;;;;;;4.47;3.10;;;7.20;99.90;;;;;;6526881;22;20464;-69
2024/04/24 03:40:19;;;;;;;3.20;2.70;;;7.20;99.90;;;;;;6526542;22;20501;-69
2024/04/24 03:42:48;;;;;;;5.33;3.20;;;7.10;99.90;;;;;;6526831;22;20801;-69
2024/04/24 03:45:19;;;;;;;3.43;2.60;;;7.10;99.90;;;;;;6525440;21;20505;-69
2024/04/24 03:47:48;;;;;;;4.30;2.57;;;7.20;99.90;;;;;;6526988;22;20460;-69
2024/04/24 03:50:17;;;;;;;2.90;2.50;;;7.20;99.90;;;;;;6526636;22;20497;-69
2024/04/24 03:52:45;;;;;;;6.37;2.53;;;7.20;99.90;;;;;;6526532;22;20688;-69
2024/04/24 03:55:14;;;;;;;3.33;2.70;;;7.10;99.90;;;;;;6525387;21;20464;-69
2024/04/24 03:57:42;;;;;;;4.20;3.10;;;7.10;99.90;;;;;;6526333;22;20456;-69
2024/04/24 04:00:11;;;;;;;4.90;3.20;;;7.00;99.90;;;;;;6526320;22;20509;-70
2024/04/24 04:02:43;;;;;;;4.50;3.13;;;7.00;99.90;;;;;;6526527;22;20567;-68
2024/04/24 04:05:11;;;;;;;4.57;3.20;;;7.00;99.90;;;;;;6525276;21;20484;-69
2024/04/24 04:07:40;;;;;;;4.93;3.30;;;7.00;99.90;;;;;;6526482;22;20457;-69
2024/04/24 04:10:09;;;;;;;4.63;3.10;;;7.00;99.90;;;;;;6526157;22;20464;-69
2024/04/24 04:12:37;;;;;;;4.60;3.00;;;7.10;99.90;;;;;;6526534;22;20460;-69
2024/04/24 04:15:07;;;;;;;6.73;2.97;;;7.10;99.90;;;;;;6525427;21;20521;-68
2024/04/24 04:17:35;;;;;;;3.60;2.90;;;7.10;99.90;;;;;;6526152;22;20460;-69
2024/04/24 04:20:10;;;;;;;3.73;2.97;;;7.00;99.90;;;;;;6526496;22;20452;-70
2024/04/24 04:22:38;;;;;;;5.30;3.67;;;7.10;99.90;;;;;;6526577;22;20514;-69
2024/04/24 04:25:10;;;;;;;6.37;3.13;;;7.10;99.90;;;;;;6525676;21;20472;-69
2024/04/24 04:27:38;;;;;;;8.00;3.63;;;7.10;99.90;;;;;;6527015;22;20465;-70
2024/04/24 04:30:07;;;;;;;4.70;3.27;;;7.10;99.90;;;;;;6526900;22;20464;-69
2024/04/24 04:32:36;;;;;;;3.03;2.80;;;7.10;99.90;;;;;;6527203;22;20495;-69
2024/04/24 04:35:04;;;;;;;4.57;3.43;;;7.10;99.90;;;;;;6525368;21;20456;-69
2024/04/24 04:37:35;;;;;;;4.27;3.33;;;7.00;99.90;;;;;;6526950;22;20461;-70
2024/04/24 04:40:04;;;;;;;6.40;4.00;;;7.00;99.90;;;;;;6526367;22;20586;-70
2024/04/24 04:42:33;;;;;;;5.97;2.67;;;7.00;99.90;;;;;;6526215;22;20499;-70
2024/04/24 04:45:01;;;;;;;5.80;3.20;;;7.00;99.90;;;;;;6525355;21;20477;-70
2024/04/24 04:47:30;;;;;;;4.93;3.13;;;7.10;99.90;;;;;;6525931;22;20976;-69
2024/04/24 04:49:58;;;;;;;3.37;2.60;;;7.10;99.90;;;;;;6525998;22;20564;-69
2024/04/24 04:52:27;;;;;;;6.00;3.57;;;7.10;99.90;;;;;;6526198;22;20945;-69
2024/04/24 04:54:58;;;;;;;7.07;3.50;;;7.20;99.90;;;;;;6524603;21;20504;-69
2024/04/24 04:57:26;;;;;;;3.00;2.57;;;7.30;99.90;;;;;;6525981;22;20839;-70
2024/04/24 04:59:55;;;;;;;6.67;3.70;;;7.30;99.90;;;;;;6525605;22;20517;-69
2024/04/24 05:02:23;;;;;;;5.60;3.17;;;7.30;99.90;;;;;;6525941;22;20453;-69
2024/04/24 05:04:52;;;;;;;5.00;3.73;;;7.40;99.90;;;;;;6524768;21;20461;-68
2024/04/24 05:07:20;;;;;;;3.93;3.13;;;7.30;99.90;;;;;;6526129;22;20456;-70
2024/04/24 05:09:48;;;;;;;4.33;3.37;;;7.30;99.90;;;;;;6526014;22;20508;-68
2024/04/24 05:12:27;;;;;;;9.00;3.37;;;7.30;99.90;;;;;;6526022;22;20509;-69
2024/04/24 05:14:55;;;;;;;5.63;3.20;;;7.30;99.90;;;;;;6524848;21;20472;-69
2024/04/24 05:17:24;;;;;;;7.73;3.97;;;7.40;99.90;;;;;;6526087;22;20461;-68
2024/04/24 05:19:52;;;;;;;3.10;2.77;;;7.50;99.90;;;;;;6525808;22;20508;-70
2024/04/24 05:22:23;;;;;;;5.23;3.87;;;7.60;99.90;;;;;;6525978;22;20509;-69
2024/04/24 05:24:51;;;;;;;9.33;4.70;;;7.60;99.90;;;;;;6525059;21;20519;-70
2024/04/24 05:30:07;;;;;;;4.77;4.00;;;7.60;99.90;;;;;;6529389;22;20989;-69
2024/04/24 05:32:36;;;;;;;9.73;3.90;;;7.70;99.90;;;;;;6525835;22;20449;-69
2024/04/24 05:35:04;;;;;;;5.80;3.83;;;7.80;99.90;;;;;;6524441;21;20472;-68
2024/04/24 05:37:33;;;;;;;11.33;3.57;;;7.90;99.90;;;;;;6525812;22;20460;-69
2024/04/24 05:40:01;;;;;;;5.90;4.03;;;7.90;99.90;;;;;;6525699;22;20779;-71
2024/04/24 05:42:37;;;;;;;4.67;3.80;;;8.00;99.90;;;;;;6526395;21;20456;-70
2024/04/24 05:45:06;;;;;;;4.80;3.17;;;8.00;99.90;;;;;;6527213;21;21017;-70
2024/04/24 05:47:34;;;;;;;9.73;4.70;;;8.10;99.90;;;;;;6527589;22;20467;-69
2024/04/24 05:50:02;;;;;;;6.70;4.23;;;8.30;99.90;;;;;;6527293;22;20933;-69
2024/04/24 05:52:31;;;;;;;4.93;3.40;;;8.20;99.90;;;;;;6527444;22;20457;-69
2024/04/24 05:54:59;;;;;;;5.93;3.63;;;8.20;99.90;;;;;;6526513;21;20523;-69
2024/04/24 05:57:29;;;;;;;5.87;4.83;;;8.20;99.90;;;;;;6527715;22;20448;-68
2024/04/24 06:00:00;;;;;;;5.40;3.70;;;8.30;99.90;;;;;;6527349;22;20455;-70
2024/04/24 06:02:34;;;;;;;6.80;4.37;;;8.30;99.90;;;;;;6528097;22;20457;-69
2024/04/24 06:05:09;;;;;;;6.37;4.13;;;8.50;99.90;;;;;;6527191;21;20520;-69
2024/04/24 06:07:37;;;;;;;8.00;4.70;;;8.50;99.90;;;;;;6529125;22;20511;-69
2024/04/24 06:10:09;;;;;;;11.00;4.03;;;8.60;99.90;;;;;;6528325;22;20810;-69
2024/04/24 06:12:40;;;;;;;7.90;4.53;;;8.60;99.90;;;;;;6528681;22;20508;-69
2024/04/24 06:15:15;;;;;;;5.47;4.03;;;8.60;99.90;;;;;;6526762;21;20480;-70
2024/04/24 06:17:44;;;;;;;6.70;4.47;;;8.70;99.90;;;;;;6527303;22;20578;-70
2024/04/24 06:20:15;;;;;;;6.97;4.40;;;8.80;99.90;;;;;;6527755;22;20452;-70
2024/04/24 06:22:43;;;;;;;6.70;4.70;;;8.80;99.90;;;;;;6526929;22;20460;-70
2024/04/24 06:25:12;;;;;;;4.30;3.80;;;8.80;99.90;;;;;;6526225;21;20511;-70
2024/04/24 06:27:40;;;;;;;6.13;4.70;;;8.90;99.90;;;;;;6527396;22;20449;-69
2024/04/24 06:30:12;;;;;;;5.93;4.23;;;8.90;99.90;;;;;;6526783;22;20456;-67
2024/04/24 06:32:40;;;;;;;7.70;4.90;;;8.90;99.90;;;;;;6526911;22;20452;-69
2024/04/24 06:35:09;;;;;;;4.83;3.47;;;8.90;99.90;;;;;;6526140;21;20977;-68
2024/04/24 06:37:38;;;;;;;10.23;5.80;;;8.80;99.90;;;;;;6526828;22;20456;-67
2024/04/24 06:40:08;;;;;;;9.47;4.60;;;8.70;99.90;;;;;;6526561;22;20505;-68
2024/04/24 06:42:38;;;;;;;6.70;4.30;;;8.80;99.90;;;;;;6527103;22;20456;-69
2024/04/24 06:45:07;;;;;;;7.00;5.00;;;8.90;99.90;;;;;;6526003;21;20461;-68
2024/04/24 06:47:38;;;;;;;7.60;4.83;;;9.10;99.90;;;;;;6526932;22;20961;-68
2024/04/24 06:50:07;;;;;;;10.33;4.73;;;9.10;99.90;;;;;;6524058;22;20465;-68
2024/04/24 06:52:35;;;;;;;4.40;3.70;;;9.20;99.90;;;;;;6526426;22;20460;-68
2024/04/24 06:55:04;;;;;;;5.20;4.23;;;9.20;99.90;;;;;;6526170;21;20469;-66
2024/04/24 06:57:32;;;;;;;9.03;5.07;;;9.30;99.90;;;;;;6526671;22;20956;-68
2024/04/24 07:00:02;;;;;;;8.30;5.60;;;9.40;99.90;;;;;;6526402;22;20856;-69
2024/04/24 07:02:30;;;;;;;7.37;4.80;;;9.40;99.90;;;;;;6526888;22;20457;-68
2024/04/24 07:05:04;;;;;;;9.63;5.13;;;9.60;99.90;;;;;;6525840;21;20823;-67
2024/04/24 07:07:32;;;;;;;9.67;4.83;;;9.80;99.90;;;;;;6526975;22;20897;-67
2024/04/24 07:10:01;;;;;;;7.90;4.10;;;9.90;99.90;;;;;;6525943;22;20460;-67
2024/04/24 07:12:29;;;;;;;15.00;5.43;;;10.00;99.90;;;;;;6526716;22;20460;-69
2024/04/24 07:14:58;;;;;;;6.23;4.20;;;10.10;99.90;;;;;;6526124;21;20501;-74
2024/04/24 07:17:26;;;;;;;8.43;4.30;;;10.20;99.90;;;;;;6525592;22;20505;-69
2024/04/24 07:19:55;;;;;;;6.33;4.37;;;10.30;99.90;;;;;;6526796;22;20807;-68
2024/04/24 07:22:26;;;;;;;13.30;6.23;;;10.40;99.00;;;;;;6526828;22;20945;-67
2024/04/24 07:24:55;;;;;;;6.90;4.63;;;10.50;98.30;;;;;;6525925;21;20468;-67
2024/04/24 07:27:24;;;;;;;7.33;5.03;;;10.70;97.90;;;;;;6526911;22;20585;-67
2024/04/24 07:29:52;;;;;;;7.30;5.27;;;10.90;97.20;;;;;;6526653;22;20453;-68
2024/04/24 07:32:21;;;;;;;4.87;3.97;;;11.00;96.90;;;;;;6526885;22;20460;-68
2024/04/24 07:34:49;;;;;;;7.50;4.70;;;11.00;95.60;;;;;;6525830;21;20766;-67
2024/04/24 07:37:16;;;;;;;6.80;4.00;;;11.00;95.40;;;;;;6526301;22;20505;-67
2024/04/24 07:39:48;;;;;;;5.80;4.00;;;11.10;95.40;;;;;;6526625;22;20452;-68
2024/04/24 07:42:17;;;;;;;8.33;4.60;;;11.20;95.50;;;;;;6526122;22;20957;-70
2024/04/24 07:44:45;;;;;;;7.60;5.73;;;11.10;95.60;;;;;;6525484;21;20773;-68
2024/04/24 07:47:14;;;;;;;8.43;4.30;;;11.20;95.10;;;;;;6526240;22;20464;-67
2024/04/24 07:49:42;;;;;;;4.93;4.20;;;11.30;94.90;;;;;;6526099;22;20758;-70
2024/04/24 07:52:11;;;;;;;7.67;4.50;;;11.40;94.10;;;;;;6526679;22;20761;-70
2024/04/24 07:54:39;;;;;;;9.07;4.97;;;11.40;93.50;;;;;;6525521;21;20950;-67
2024/04/24 07:57:11;;;;;;;6.57;4.07;;;11.60;93.60;;;;;;6526398;22;20525;-66
2024/04/24 07:59:39;;;;;;;5.80;4.20;;;11.70;92.00;;;;;;6526286;22;20501;-69
2024/04/24 08:02:08;;;;;;;5.97;4.03;;;11.70;93.00;;;;;;6526064;22;21002;-66
2024/04/24 08:04:36;;;;;;;8.57;3.70;;;11.80;92.30;;;;;;6524720;21;20461;-69
2024/04/24 08:07:05;;;;;;;6.53;4.27;;;11.80;92.20;;;;;;6526371;22;20445;-66
2024/04/24 08:09:34;;;;;;;5.50;4.00;;;12.60;99.90;;;;;;6525705;22;20453;-67
2024/04/24 08:12:05;;;;;;;6.05;4.00;;;12.90;99.90;;;;;;6525005;22;20391;-68
2024/04/24 08:14:36;;;;;;;7.43;4.50;;;13.40;96.20;;;;;;6525000;21;20225;-68
2024/04/24 08:17:05;;;;;;;5.00;4.17;;;13.40;88.30;;;;;;6526463;22;20495;-68
2024/04/24 08:19:33;;;;;;;7.30;3.90;;;13.40;83.80;;;;;;6526073;22;20503;-67
2024/04/24 08:22:02;;;;;;;4.57;4.03;;;13.90;81.40;;;;;;6526007;22;20464;-69
2024/04/24 08:24:30;;;;;;;6.30;3.23;;;14.50;76.60;;;;;;6524801;21;20464;-68
2024/04/24 08:26:59;;;;;;;4.83;4.13;;;14.90;75.10;;;;;;6525969;22;20493;-68
2024/04/24 08:29:28;;;;;;;7.30;4.20;;;15.50;71.90;;;;;;6525692;22;20453;-68
2024/04/24 08:32:00;;;;;;;10.43;5.57;;;15.90;70.00;;;;;;6525947;22;20464;-67
2024/04/24 08:34:29;;;;;;;5.90;3.93;;;15.70;66.10;;;;;;6524810;21;20468;-68
2024/04/24 08:36:57;;;;;;;7.97;4.17;;;15.20;65.10;;;;;;6524788;22;20456;-69
2024/04/24 08:39:26;;;;;;;6.17;4.57;;;14.80;65.60;;;;;;6524647;22;20448;-70
2024/04/24 08:41:55;;;;;;;6.80;3.63;;;14.70;66.70;;;;;;6524854;22;20505;-70
2024/04/24 08:44:24;;;;;;;5.60;4.33;;;14.40;65.10;;;;;;6523730;21;21052;-71
2024/04/24 08:46:55;;;;;;;4.60;2.77;;;14.10;64.60;;;;;;6524886;22;20973;-68
2024/04/24 08:49:27;;;;;;;4.90;3.57;;;14.10;64.60;;;;;;6524715;22;20500;-68
2024/04/24 08:51:57;;;;;;;5.57;4.07;;;14.10;64.70;;;;;;6525423;22;20457;-68
2024/04/24 08:54:28;;;;;;;4.43;3.60;;;14.10;65.70;;;;;;6523666;21;20468;-67
2024/04/24 08:57:02;;;;;;;8.37;4.50;;;14.10;65.10;;;;;;6525059;22;20737;-69
2024/04/24 08:59:32;;;;;;;5.80;3.87;;;14.10;65.40;;;;;;6525375;22;20512;-69
2024/04/24 09:02:09;;;;;;;6.13;4.50;;;13.90;66.10;;;;;;6525148;22;20494;-69
2024/04/24 09:07:19;;;;;;;6.93;4.83;;;13.50;66.60;;;;;;6577437;21;20515;-68
2024/04/24 09:09:48;;;;;;;5.27;4.20;;;13.10;67.60;;;;;;6577454;21;20458;-67
2024/04/24 09:12:18;;;;;;;6.93;4.40;;;12.80;68.20;;;;;;6577909;21;20490;-67
2024/04/24 09:14:47;;;;;;;5.47;4.90;;;12.60;68.80;;;;;;6545395;21;20513;-68
2024/04/24 09:17:15;;;;;;;5.60;3.93;;;12.40;69.30;;;;;;6524807;22;20945;-68
2024/04/24 09:19:44;;;;;;;4.83;4.30;;;12.20;69.10;;;;;;6525437;22;20502;-69
2024/04/24 09:22:15;;;;;;;5.33;4.50;;;12.00;70.20;;;;;;6525783;22;20968;-67
2024/04/24 09:24:48;;;;;;;5.53;3.90;;;11.90;72.10;;;;;;6524600;21;20591;-67
2024/04/24 09:27:19;;;;;;;6.07;4.80;;;11.80;73.50;;;;;;6525607;22;20457;-67
2024/04/24 09:29:45;;;;;;;5.57;3.93;;;11.70;74.90;;;;;;6524786;22;20596;-67
2024/04/24 09:32:14;;;;;;;4.00;3.50;;;11.50;75.10;;;;;;6525102;22;20468;-69
2024/04/24 09:34:45;;;;;;;4.23;3.50;;;11.30;75.70;;;;;;6524633;21;20513;-65
2024/04/24 09:37:17;;;;;;;5.77;4.20;;;11.20;76.20;;;;;;6525219;22;20456;-68
2024/04/24 09:39:46;;;;;;;3.27;2.93;;;11.10;76.60;;;;;;6525969;22;20452;-67
2024/04/24 09:42:16;;;;;;;5.13;3.77;;;11.20;78.30;;;;;;6525606;22;20456;-68
2024/04/24 09:44:45;;;;;;;5.90;3.43;;;11.30;79.90;;;;;;6524373;21;20461;-68
2024/04/24 09:47:14;;;;;;;4.70;3.60;;;11.60;80.70;;;;;;6525313;22;20571;-68
2024/04/24 09:49:45;;;;;;;7.03;3.97;;;11.90;81.40;;;;;;6525243;22;20823;-66
2024/04/24 09:52:17;;;;;;;4.23;3.83;;;12.30;80.10;;;;;;6525825;22;20453;-67
2024/04/24 09:54:48;;;;;;;5.80;4.70;;;12.40;78.00;;;;;;6524507;21;20508;-69
2024/04/24 09:57:20;;;;;;;8.87;4.23;;;12.30;77.10;;;;;;6524774;22;20456;-69
2024/04/24 09:59:56;;;;;;;4.70;4.00;;;12.30;77.50;;;;;;6525470;22;20565;-71
2024/04/24 10:02:27;;;;;;;9.37;5.60;;;12.30;78.70;;;;;;6525752;22;20459;-69
2024/04/24 10:05:03;;;;;;;9.50;5.40;;;12.50;77.50;;;;;;6524322;21;20813;-68
2024/04/24 10:07:43;;;;;;;6.00;5.17;;;12.70;77.30;;;;;;6525127;22;20464;-67
2024/04/24 10:10:13;;;;;;;5.80;4.73;;;12.70;75.90;;;;;;6523220;22;20936;-67
2024/04/24 10:12:44;;;;;;;8.50;6.17;;;12.70;77.00;;;;;;6525201;22;20453;-68
2024/04/24 10:15:19;;;;;;;8.37;6.37;;;12.70;76.60;;;;;;6520269;21;20464;-68
2024/04/24 10:17:48;;;;;;;8.03;6.03;;;12.80;77.10;;;;;;6524009;22;20460;-70
2024/04/24 10:20:17;;;;;;;6.07;5.23;;;12.70;75.90;;;;;;6521542;22;21028;-71
2024/04/24 10:22:50;;;;;;;6.23;5.27;;;12.50;76.20;;;;;;6523018;22;21072;-71
2024/04/24 10:25:20;;;;;;;7.90;6.33;;;12.30;78.30;;;;;;6523586;21;20464;-70
2024/04/24 10:27:51;;;;;;;10.00;7.03;;;12.10;78.20;;;;;;6525807;22;20453;-70
2024/04/24 10:30:21;;;;;;;7.93;6.33;;;11.90;78.50;;;;;;6524292;22;20846;-70
2024/04/24 10:32:50;;;;;;;11.60;6.87;;;11.80;80.50;;;;;;6525094;22;20448;-66
2024/04/24 10:35:20;;;;;;;8.07;5.63;;;11.70;80.90;;;;;;6525035;21;20517;-66
2024/04/24 10:37:55;;;;;;;9.20;6.67;;;11.60;79.50;;;;;;6525289;22;20457;-69
2024/04/24 10:40:27;;;;;;;10.23;6.20;;;11.50;81.60;;;;;;6526269;22;20464;-66
2024/04/24 10:42:57;;;;;;;9.30;6.67;;;11.40;82.70;;;;;;6526836;22;20464;-66
2024/04/24 10:45:26;;;;;;;15.33;8.23;;;11.40;82.00;;;;;;6525760;21;20468;-69
2024/04/24 10:47:56;;;;;;;9.07;7.00;;;11.40;82.50;;;;;;6527107;22;20452;-66
2024/04/24 10:50:27;;;;;;;14.50;7.13;;;11.40;84.00;;;;;;6526248;21;20505;-67
2024/04/24 10:52:59;;;;;;;8.70;6.47;;;11.40;84.40;;;;;;6527236;22;20460;-68
2024/04/24 10:55:28;;;;;;;9.37;7.00;;;11.40;82.70;;;;;;6526039;21;20472;-71
2024/04/24 10:57:57;;;;;;;8.40;6.70;;;11.40;83.80;;;;;;6527017;22;20472;-68
2024/04/24 11:00:30;;;;;;;9.93;6.87;;;11.50;84.80;;;;;;6527728;22;20529;-68
2024/04/24 11:03:00;;;;;;;11.03;6.50;;;11.80;84.00;;;;;;6527507;22;20495;-69
2024/04/24 11:05:28;;;;;;;10.10;7.13;;;12.00;82.10;;;;;;6525335;21;20468;-65
2024/04/24 11:08:04;;;;;;;10.20;6.87;;;12.10;81.10;;;;;;6526519;22;20464;-66
2024/04/24 11:10:34;;;;;;;8.00;6.27;;;12.20;79.90;;;;;;6525770;21;20464;-69
2024/04/24 11:13:04;;;;;;;8.93;6.63;;;12.30;78.70;;;;;;6525217;22;20461;-69
2024/04/24 11:15:35;;;;;;;11.03;6.03;;;12.30;76.50;;;;;;6524458;21;20598;-69
2024/04/24 11:18:03;;;;;;;9.97;7.40;;;12.30;76.40;;;;;;6524426;22;20461;-67
2024/04/24 11:20:37;;;;;;;7.37;6.07;;;12.30;76.50;;;;;;6525791;22;20456;-70
2024/04/24 11:23:11;;;;;;;25.07;13.70;;;12.30;77.40;;;;;;6525842;22;20456;-69
2024/04/24 11:25:50;;;;;;;36.60;22.53;;;12.30;77.80;;;;;;6525140;21;20463;-69
2024/04/24 11:28:19;;;;;;;32.60;15.53;;;12.40;79.20;;;;;;6525478;22;20873;-68
2024/04/24 11:30:49;;;;;;;13.03;7.60;;;12.70;79.10;;;;;;6526169;22;20840;-67
2024/04/24 11:33:17;;;;;;;8.53;7.03;;;12.80;77.50;;;;;;6526276;22;20456;-70
2024/04/24 11:35:46;;;;;;;7.07;6.27;;;13.00;76.50;;;;;;6525148;21;20817;-67
2024/04/24 11:38:18;;;;;;;7.23;6.33;;;13.00;75.80;;;;;;6526322;22;20500;-68
2024/04/24 11:40:46;;;;;;;9.80;7.43;;;12.90;75.90;;;;;;6525426;22;20828;-69
2024/04/24 11:43:16;;;;;;;9.10;6.63;;;12.80;76.70;;;;;;6526135;22;20460;-69
2024/04/24 11:45:44;;;;;;;7.67;6.63;;;12.80;77.00;;;;;;6525683;21;20830;-70
2024/04/24 11:48:13;;;;;;;13.47;7.53;;;12.60;77.30;;;;;;6526924;22;20765;-69
2024/04/24 11:50:42;;;;;;;15.33;7.00;;;12.60;77.80;;;;;;6527764;22;20505;-69
2024/04/24 11:53:11;;;;;;;14.73;7.40;;;12.70;77.00;;;;;;6526622;22;20497;-68
2024/04/24 11:55:40;;;;;;;8.07;7.27;;;12.70;78.40;;;;;;6524710;21;20464;-68
2024/04/24 11:58:13;;;;;;;14.73;7.37;;;13.00;88.40;;;;;;6526189;22;20937;-68
2024/04/24 12:00:42;;;;;;;12.27;6.73;;;13.10;79.30;;;;;;6526030;22;20464;-68
2024/04/24 12:03:11;;;;;;;9.10;6.30;;;12.90;77.80;;;;;;6526181;22;20509;-70
2024/04/24 12:05:40;;;;;;;8.70;6.77;;;12.80;77.60;;;;;;6524649;21;20516;-69
2024/04/24 12:08:10;;;;;;;13.00;6.37;;;12.70;77.40;;;;;;6525915;22;20468;-67
2024/04/24 12:10:42;;;;;;;8.43;6.23;;;12.50;77.20;;;;;;6526221;22;20932;-68
2024/04/24 12:13:10;;;;;;;8.80;7.00;;;12.40;77.80;;;;;;6526082;22;21098;-68
2024/04/24 12:15:39;;;;;;;12.00;7.17;;;12.30;78.40;;;;;;6524796;21;20981;-68
2024/04/24 12:18:07;;;;;;;8.50;6.97;;;12.20;79.00;;;;;;6526277;22;20497;-68
2024/04/24 12:20:36;;;;;;;8.73;5.80;;;12.20;79.50;;;;;;6526789;22;20509;-70
2024/04/24 12:23:08;;;;;;;7.73;6.27;;;12.00;75.90;;;;;;6528741;22;20574;-68
2024/04/24 12:25:37;;;;;;;7.10;5.10;;;11.90;77.20;;;;;;6527809;21;20483;-69
2024/04/24 12:28:08;;;;;;;10.37;5.90;;;11.90;77.10;;;;;;6530220;22;20501;-68
2024/04/24 12:30:37;;;;;;;7.73;5.73;;;11.70;74.80;;;;;;6530319;22;20460;-68
2024/04/24 12:33:06;;;;;;;9.37;5.53;;;11.50;75.20;;;;;;6529863;22;20453;-69
2024/04/24 12:35:35;;;;;;;6.17;5.07;;;11.40;75.70;;;;;;6530311;21;21125;-69
2024/04/24 12:38:04;;;;;;;5.93;4.00;;;11.30;76.80;;;;;;6532420;22;20457;-68
2024/04/24 12:40:33;;;;;;;4.80;3.57;;;11.30;77.40;;;;;;6532647;22;20457;-72
2024/04/24 12:43:01;;;;;;;6.27;4.33;;;11.20;79.10;;;;;;6532761;22;20505;-70
2024/04/24 12:45:34;;;;;;;6.73;4.00;;;11.10;78.90;;;;;;6531760;21;20468;-71
2024/04/24 12:48:00;;;;;;;7.30;4.80;;;10.90;79.50;;;;;;6532206;21;20491;-69
2024/04/24 12:50:28;;;;;;;7.90;4.90;;;10.80;80.70;;;;;;6531451;22;20456;-68
2024/04/24 12:52:57;;;;;;;6.67;4.40;;;10.80;83.30;;;;;;6531598;22;20217;-69
2024/04/24 12:55:23;;;;;;;9.53;5.83;;;10.80;85.30;;;;;;6527458;21;20469;-69
2024/04/24 12:57:51;;;;;;;8.63;5.33;;;10.90;87.00;;;;;;6525952;22;20456;-69
2024/04/24 13:00:20;;;;;;;7.70;5.97;;;11.10;87.90;;;;;;6526022;22;20452;-70
2024/04/24 13:02:51;;;;;;;8.23;5.20;;;11.20;87.70;;;;;;6525955;22;20528;-68
2024/04/24 13:05:19;;;;;;;9.07;6.10;;;11.40;87.70;;;;;;6524681;21;20505;-70
2024/04/24 13:07:48;;;;;;;8.10;6.27;;;11.60;87.60;;;;;;6524951;22;20508;-69